createdAt,value
2023-04-02T00:02:20.800Z,95202.69
2023-04-02T00:05:21.196Z,95208.75
2023-04-02T00:07:50.080Z,95207.13
2023-04-02T00:10:29.170Z,95207.94
2023-04-02T00:13:29.432Z,95213.22
2023-04-02T00:15:58.544Z,95205.72
2023-04-02T00:18:26.284Z,95213.19
2023-04-02T00:21:12.146Z,95203.88
2023-04-02T00:23:42.062Z,95199.84
2023-04-02T00:26:31.485Z,95203.50
2023-04-02T00:29:00.035Z,95209.97
2023-04-02T00:31:27.160Z,95209.16
2023-04-02T00:33:55.054Z,95205.31
2023-04-02T00:36:23.161Z,95208.78
2023-04-02T00:38:50.335Z,95211.19
2023-04-02T00:41:22.954Z,95210.59
2023-04-02T00:43:50.725Z,95209.56
2023-04-02T00:46:24.457Z,95210.38
2023-04-02T00:49:08.975Z,95213.22
2023-04-02T00:51:42.106Z,95209.78
2023-04-02T00:54:15.633Z,95211.81
2023-04-02T00:56:43.869Z,95213.63
2023-04-02T00:59:27.761Z,95218.06
2023-04-02T01:02:02.031Z,95220.91
2023-04-02T01:04:35.069Z,95224.53
2023-04-02T01:07:06.855Z,95223.53
2023-04-02T01:09:55.698Z,95226.19
2023-04-02T01:12:57.218Z,95227.38
2023-04-02T01:15:55.839Z,95238.72
2023-04-02T01:18:53.540Z,95232.88
2023-04-02T01:21:45.241Z,94992.34
2023-04-02T01:24:15.808Z,94986.47
2023-04-02T01:27:05.199Z,94987.28
2023-04-02T01:29:34.609Z,94987.28
2023-04-02T01:32:06.352Z,94986.91
2023-04-02T01:34:33.606Z,94987.28
2023-04-02T01:37:14.170Z,94987.28
2023-04-02T01:40:03.438Z,94975.59
2023-04-02T01:42:35.326Z,94979.22
2023-04-02T01:45:08.095Z,94974.75
2023-04-02T01:47:35.250Z,94976.59
2023-04-02T01:50:32.177Z,94982.66
2023-04-02T01:53:05.383Z,94974.78
2023-04-02T01:55:42.599Z,94976.41
2023-04-02T01:58:11.808Z,94977.00
2023-04-02T02:00:46.728Z,94980.47
2023-04-02T02:03:14.105Z,94977.25
2023-04-02T02:05:40.875Z,94974.63
2023-04-02T02:08:22.211Z,94983.94
2023-04-02T02:10:49.629Z,94984.56
2023-04-02T02:13:16.701Z,94993.88
2023-04-02T02:15:44.265Z,94995.47
2023-04-02T02:18:13.044Z,94988.19
2023-04-02T02:20:39.946Z,94988.19
2023-04-02T02:23:07.545Z,94994.22
2023-04-02T02:25:35.946Z,94995.88
2023-04-02T02:28:10.520Z,94996.66
2023-04-02T02:31:03.899Z,94996.25
2023-04-02T02:33:41.362Z,94984.75
2023-04-02T02:36:27.953Z,94995.44
2023-04-02T02:39:02.193Z,94995.06
2023-04-02T02:41:33.524Z,94998.69
2023-04-02T02:44:02.705Z,95000.13
2023-04-02T02:46:31.831Z,95004.78
2023-04-02T02:48:59.391Z,95001.97
2023-04-02T02:51:31.301Z,94997.94
2023-04-02T02:54:03.123Z,94999.97
2023-04-02T02:56:35.050Z,95003.59
2023-04-02T02:59:04.301Z,95006.22
2023-04-02T03:01:31.883Z,95013.09
2023-04-02T03:03:58.722Z,95018.34
2023-04-02T03:06:25.402Z,95017.34
2023-04-02T03:09:03.611Z,95023.00
2023-04-02T03:11:37.147Z,95030.50
2023-04-02T03:14:16.144Z,95019.38
2023-04-02T03:16:47.073Z,95028.88
2023-04-02T03:19:35.440Z,95033.13
2023-04-02T03:22:31.887Z,95030.91
2023-04-02T03:25:05.960Z,95040.03
2023-04-02T03:27:37.062Z,95033.16
2023-04-02T03:30:10.299Z,95037.16
2023-04-02T03:32:40.337Z,95038.56
2023-04-02T03:35:25.040Z,95039.00
2023-04-02T03:38:05.044Z,95042.84
2023-04-02T03:40:41.985Z,95042.44
2023-04-02T03:43:43.419Z,95036.38
2023-04-02T03:46:22.374Z,95046.50
2023-04-02T03:48:54.474Z,95052.56
2023-04-02T03:51:39.631Z,95053.78
2023-04-02T03:54:12.761Z,95052.56
2023-04-02T03:56:40.389Z,95057.22
2023-04-02T03:59:22.184Z,95067.34
2023-04-02T04:02:27.428Z,95055.81
2023-04-02T04:04:56.186Z,95058.25
2023-04-02T04:07:32.923Z,95069.31
2023-04-02T04:10:01.962Z,95075.16
2023-04-02T04:12:40.708Z,95081.22
2023-04-02T04:15:15.654Z,95079.63
2023-04-02T04:18:03.162Z,95085.28
2023-04-02T04:20:34.381Z,95081.25
2023-04-02T04:23:35.854Z,95081.22
2023-04-02T04:26:11.790Z,95086.09
2023-04-02T04:29:05.428Z,95082.41
2023-04-02T04:31:50.150Z,95074.66
2023-04-02T04:34:22.978Z,95088.94
2023-04-02T04:36:57.858Z,95082.25
2023-04-02T04:39:34.720Z,95076.56
2023-04-02T04:42:05.762Z,95054.81
2023-04-02T04:44:38.198Z,94819.81
2023-04-02T04:47:18.641Z,94801.81
2023-04-02T04:49:52.066Z,94785.41
2023-04-02T04:52:26.173Z,94782.59
2023-04-02T04:54:52.827Z,94783.78
2023-04-02T04:57:38.179Z,94776.09
2023-04-02T05:00:20.590Z,94767.63
2023-04-02T05:03:02.367Z,94774.25
2023-04-02T05:05:37.650Z,94769.59
2023-04-02T05:08:15.096Z,94760.47
2023-04-02T05:10:49.189Z,94756.63
2023-04-02T05:13:25.534Z,94760.88
2023-04-02T05:16:29.724Z,94755.41
2023-04-02T05:19:05.525Z,94746.06
2023-04-02T05:22:01.830Z,94750.47
2023-04-02T05:24:53.976Z,94739.91
2023-04-02T05:27:32.374Z,94737.09
2023-04-02T05:30:21.243Z,94745.56
2023-04-02T05:32:54.439Z,94743.13
2023-04-02T05:35:28.032Z,94743.78
2023-04-02T05:37:54.534Z,94743.19
2023-04-02T05:40:31.872Z,94737.09
2023-04-02T05:43:00.674Z,94738.47
2023-04-02T05:45:32.202Z,94734.66
2023-04-02T05:48:02.587Z,94737.28
2023-04-02T05:50:37.644Z,94742.19
2023-04-02T05:53:43.227Z,94745.00
2023-04-02T05:56:22.104Z,94750.25
2023-04-02T05:58:54.964Z,94749.44
2023-04-02T06:01:45.421Z,94758.50
2023-04-02T06:04:33.164Z,94748.75
2023-04-02T06:07:12.149Z,94756.88
2023-04-02T06:09:46.196Z,94751.78
2023-04-02T06:12:30.944Z,94752.53
2023-04-02T06:14:57.902Z,94754.72
2023-04-02T06:17:24.631Z,94743.94
2023-04-02T06:19:54.798Z,94734.19
2023-04-02T06:22:27.137Z,94744.03
2023-04-02T06:25:00.571Z,94728.81
2023-04-02T06:27:27.689Z,94725.31
2023-04-02T06:30:01.501Z,94715.66
2023-04-02T06:32:28.035Z,94712.53
2023-04-02T06:34:54.795Z,94703.16
2023-04-02T06:37:27.893Z,94696.09
2023-04-02T06:39:56.127Z,94696.59
2023-04-02T06:42:30.542Z,94692.00
2023-04-02T06:44:57.487Z,94690.41
2023-04-02T06:47:42.730Z,94676.50
2023-04-02T06:50:18.729Z,94677.94
2023-04-02T06:52:50.302Z,94665.34
2023-04-02T06:55:47.686Z,94675.75
2023-04-02T06:58:19.867Z,94679.38
2023-04-02T07:00:48.754Z,94687.47
2023-04-02T07:03:30.304Z,94693.63
2023-04-02T07:05:58.128Z,94687.19
2023-04-02T07:08:24.521Z,94686.63
2023-04-02T07:10:51.060Z,94679.53
2023-04-02T07:13:21.220Z,94689.41
2023-04-02T07:15:51.107Z,94683.41
2023-04-02T07:18:30.702Z,94683.97
2023-04-02T07:20:57.737Z,94678.84
2023-04-02T07:23:24.895Z,94690.91
2023-04-02T07:25:53.573Z,94708.22
2023-04-02T07:28:22.439Z,94715.25
2023-04-02T07:30:49.948Z,94706.00
2023-04-02T07:33:19.465Z,94730.88
2023-04-02T07:35:46.658Z,94749.50
2023-04-02T07:38:13.037Z,94770.13
2023-04-02T07:40:39.789Z,94774.69
2023-04-02T07:43:06.392Z,94783.16
2023-04-02T07:45:32.794Z,94784.63
2023-04-02T07:48:06.849Z,94796.06
2023-04-02T07:50:33.985Z,94810.81
2023-04-02T07:53:01.157Z,94813.38
2023-04-02T07:55:28.114Z,94826.50
2023-04-02T07:57:57.232Z,94851.78
2023-04-02T08:00:24.859Z,94861.94
2023-04-02T08:02:52.880Z,94899.97
2023-04-02T08:05:19.909Z,94907.34
2023-04-02T08:07:57.195Z,94929.97
2023-04-02T08:10:24.276Z,94939.06
2023-04-02T08:12:50.968Z,94952.59
2023-04-02T08:15:18.431Z,94960.06
2023-04-02T08:17:46.218Z,94964.81
2023-04-02T08:20:18.427Z,94979.69
2023-04-02T08:22:46.080Z,94971.88
2023-04-02T08:25:12.518Z,94995.06
2023-04-02T08:27:39.533Z,95000.97
2023-04-02T08:30:08.021Z,95014.53
2023-04-02T08:32:35.252Z,95013.91
2023-04-02T08:35:03.049Z,95044.94
2023-04-02T08:37:29.474Z,95067.66
2023-04-02T08:39:56.008Z,95083.19
2023-04-02T08:42:22.279Z,95124.13
2023-04-02T08:45:21.127Z,95142.22
2023-04-02T08:47:55.316Z,95198.00
2023-04-02T08:50:33.721Z,95227.91
2023-04-02T08:53:06.562Z,95280.09
2023-04-02T08:56:04.017Z,95375.63
2023-04-02T08:58:42.158Z,95424.50
2023-04-02T09:01:49.448Z,95414.34
2023-04-02T09:04:22.641Z,95430.19
2023-04-02T09:06:52.730Z,95478.06
2023-04-02T09:09:19.998Z,95497.66
2023-04-02T09:11:56.575Z,95721.34
2023-04-02T09:14:42.244Z,95743.47
2023-04-02T09:17:50.433Z,95742.53
2023-04-02T09:20:24.146Z,95748.13
2023-04-02T09:22:52.384Z,95754.59
2023-04-02T09:25:22.224Z,95761.41
2023-04-02T09:27:50.324Z,95748.66
2023-04-02T09:30:32.170Z,95751.31
2023-04-02T09:33:02.426Z,95750.22
2023-04-02T09:35:32.815Z,95743.44
2023-04-02T09:38:23.904Z,95724.09
2023-04-02T09:41:06.891Z,95737.84
2023-04-02T09:43:38.077Z,95745.75
2023-04-02T09:46:14.095Z,95744.06
2023-04-02T09:48:44.265Z,95744.16
2023-04-02T09:51:23.075Z,95757.38
2023-04-02T09:54:04.407Z,95756.22
2023-04-02T09:56:33.247Z,95755.63
2023-04-02T09:59:21.667Z,95763.25
2023-04-02T10:02:04.745Z,95764.34
2023-04-02T10:04:45.143Z,95775.16
2023-04-02T10:07:37.382Z,95784.50
2023-04-02T10:10:25.233Z,95779.78
2023-04-02T10:13:00.558Z,95775.91
2023-04-02T10:15:38.065Z,95777.75
2023-04-02T10:18:24.820Z,95785.72
2023-04-02T10:20:53.782Z,95787.16
2023-04-02T10:23:24.482Z,95792.88
2023-04-02T10:26:12.418Z,95800.09
2023-04-02T10:29:16.358Z,95808.81
2023-04-02T10:31:58.742Z,95818.03
2023-04-02T10:34:34.009Z,95813.69
2023-04-02T10:37:14.164Z,95817.78
2023-04-02T10:39:48.373Z,95816.97
2023-04-02T10:42:26.407Z,95813.38
2023-04-02T10:44:52.688Z,95824.16
2023-04-02T10:47:45.438Z,95821.84
2023-04-02T10:50:27.979Z,95824.56
2023-04-02T10:53:02.441Z,95832.28
2023-04-02T10:55:33.788Z,95834.34
2023-04-02T10:58:07.509Z,95831.91
2023-04-02T11:00:41.285Z,95848.25
2023-04-02T11:03:15.366Z,95846.28
2023-04-02T11:05:53.317Z,95852.38
2023-04-02T11:08:32.654Z,95854.72
2023-04-02T11:11:05.388Z,95846.72
2023-04-02T11:13:43.921Z,95854.47
2023-04-02T11:16:15.208Z,95854.22
2023-04-02T11:18:42.633Z,95853.09
2023-04-02T11:21:31.060Z,95851.50
2023-04-02T11:24:00.803Z,95849.28
2023-04-02T11:26:37.747Z,95857.75
2023-04-02T11:29:28.850Z,95864.53
2023-04-02T11:32:27.767Z,95863.69
2023-04-02T11:35:05.699Z,95872.03
2023-04-02T11:37:34.113Z,95870.66
2023-04-02T11:40:06.599Z,95871.81
2023-04-02T11:42:35.826Z,95876.16
2023-04-02T11:45:26.334Z,95879.75
2023-04-02T11:48:02.344Z,95874.72
2023-04-02T11:50:34.675Z,95892.78
2023-04-02T11:53:13.496Z,95888.78
2023-04-02T11:56:04.998Z,95897.06
2023-04-02T11:58:56.005Z,95896.88
2023-04-02T12:01:43.867Z,95885.06
2023-04-02T12:04:24.064Z,95901.34
2023-04-02T12:07:05.294Z,95892.69
2023-04-02T12:09:56.104Z,95892.69
2023-04-02T12:12:31.916Z,95881.16
2023-04-02T12:14:59.794Z,95881.84
2023-04-02T12:17:36.396Z,95893.97
2023-04-02T12:20:09.632Z,95891.31
2023-04-02T12:22:39.466Z,95892.94
2023-04-02T12:25:21.572Z,95895.94
2023-04-02T12:27:48.255Z,95907.41
2023-04-02T12:30:21.951Z,95897.25
2023-04-02T12:32:48.696Z,95899.56
2023-04-02T12:35:28.526Z,95906.97
2023-04-02T12:37:54.941Z,95917.06
2023-04-02T12:40:21.357Z,95905.75
2023-04-02T12:42:47.739Z,95905.06
2023-04-02T12:45:30.237Z,95923.41
2023-04-02T12:47:58.441Z,95918.44
2023-04-02T12:50:25.203Z,95912.41
2023-04-02T12:52:54.794Z,95908.00
2023-04-02T12:55:24.454Z,95909.94
2023-04-02T12:58:00.185Z,95903.63
2023-04-02T13:00:29.653Z,95903.34
2023-04-02T13:03:02.814Z,95908.81
2023-04-02T13:05:36.129Z,95907.94
2023-04-02T13:08:03.433Z,95902.22
2023-04-02T13:10:30.010Z,95903.34
2023-04-02T13:12:59.271Z,95907.53
2023-04-02T13:15:32.085Z,95912.84
2023-04-02T13:18:28.421Z,95914.94
2023-04-02T13:21:19.237Z,95906.22
2023-04-02T13:23:46.396Z,95914.78
2023-04-02T13:26:22.344Z,95903.38
2023-04-02T13:29:02.163Z,95909.47
2023-04-02T13:31:30.526Z,95915.28
2023-04-02T13:33:57.395Z,95907.00
2023-04-02T13:36:23.748Z,95907.88
2023-04-02T13:38:50.775Z,95912.00
2023-04-02T13:41:33.520Z,95918.72
2023-04-02T13:44:02.674Z,95920.94
2023-04-02T13:46:31.819Z,95932.88
2023-04-02T13:48:58.781Z,95931.22
2023-04-02T13:51:32.145Z,95929.47
2023-04-02T13:53:58.471Z,95931.97
2023-04-02T13:56:24.891Z,95932.53
2023-04-02T13:58:52.059Z,95929.47
2023-04-02T14:01:21.682Z,95929.63
2023-04-02T14:03:48.160Z,95932.38
2023-04-02T14:06:29.522Z,95935.53
2023-04-02T14:09:25.411Z,95936.44
2023-04-02T14:12:08.629Z,95936.34
2023-04-02T14:14:47.445Z,95939.16
2023-04-02T14:17:38.653Z,95946.56
2023-04-02T14:20:15.356Z,95944.16
2023-04-02T14:22:44.697Z,95942.19
2023-04-02T14:25:26.064Z,95943.25
2023-04-02T14:28:22.462Z,95949.63
2023-04-02T14:31:18.449Z,95941.03
2023-04-02T14:34:00.672Z,95945.19
2023-04-02T14:36:56.351Z,95944.50
2023-04-02T14:39:23.057Z,95941.94
2023-04-02T14:42:01.598Z,95941.22
2023-04-02T14:44:33.343Z,95936.06
2023-04-02T14:47:13.359Z,95919.75
2023-04-02T14:49:45.790Z,95901.97
2023-04-02T14:52:18.689Z,95901.97
2023-04-02T14:54:53.425Z,95891.66
2023-04-02T14:57:31.291Z,95875.97
2023-04-02T15:00:05.693Z,95874.34
2023-04-02T15:02:44.684Z,95860.09
2023-04-02T15:05:22.959Z,95852.38
2023-04-02T15:07:56.045Z,95825.13
2023-04-02T15:10:32.107Z,95777.97
2023-04-02T15:13:02.986Z,95528.47
2023-04-02T15:15:48.764Z,95530.88
2023-04-02T15:18:17.475Z,95529.22
2023-04-02T15:21:17.162Z,95531.91
2023-04-02T15:23:58.679Z,95524.63
2023-04-02T15:26:38.153Z,95531.53
2023-04-02T15:29:29.030Z,95528.19
2023-04-02T15:32:30.762Z,95530.50
2023-04-02T15:34:57.048Z,95530.13
2023-04-02T15:37:35.032Z,95535.84
2023-04-02T15:40:15.574Z,95528.88
2023-04-02T15:43:11.379Z,95517.69
2023-04-02T15:46:05.415Z,95521.59
2023-04-02T15:48:40.795Z,95521.16
2023-04-02T15:51:32.237Z,95522.22
2023-04-02T15:54:19.639Z,95526.47
2023-04-02T15:57:27.740Z,95535.91
2023-04-02T16:00:12.602Z,95535.06
2023-04-02T16:03:02.597Z,95537.72
2023-04-02T16:05:50.678Z,95530.66
2023-04-02T16:08:27.305Z,95534.28
2023-04-02T16:10:53.728Z,95537.13
2023-04-02T16:13:32.218Z,95534.28
2023-04-02T16:16:07.880Z,95547.47
2023-04-02T16:18:59.426Z,95548.69
2023-04-02T16:21:33.577Z,95547.25
2023-04-02T16:24:01.969Z,95548.91
2023-04-02T16:26:39.063Z,95552.94
2023-04-02T16:29:24.062Z,95566.38
2023-04-02T16:31:59.000Z,95573.47
2023-04-02T16:34:46.618Z,95573.66
2023-04-02T16:37:38.375Z,95589.47
2023-04-02T16:40:23.366Z,95587.03
2023-04-02T16:43:15.195Z,95601.22
2023-04-02T16:46:28.214Z,95599.00
2023-04-02T16:49:05.337Z,95609.31
2023-04-02T16:51:53.377Z,95607.06
2023-04-02T16:54:30.513Z,95606.84
2023-04-02T16:57:30.503Z,95606.84
2023-04-02T17:00:15.081Z,95610.91
2023-04-02T17:02:55.810Z,95628.53
2023-04-02T17:06:01.533Z,95614.16
2023-04-02T17:08:33.507Z,95629.50
2023-04-02T17:11:09.166Z,95631.13
2023-04-02T17:13:44.000Z,95635.56
2023-04-02T17:16:32.376Z,95629.50
2023-04-02T17:19:01.686Z,95634.78
2023-04-02T17:21:30.968Z,95637.22
2023-04-02T17:24:03.112Z,95646.91
2023-04-02T17:26:32.598Z,95646.72
2023-04-02T17:29:02.218Z,95656.06
2023-04-02T17:31:34.348Z,95666.31
2023-04-02T17:34:11.768Z,95676.97
2023-04-02T17:36:53.503Z,95674.75
2023-04-02T17:39:35.601Z,95674.75
2023-04-02T17:42:14.506Z,95667.47
2023-04-02T17:44:59.302Z,95683.47
2023-04-02T17:47:35.407Z,95683.56
2023-04-02T17:50:23.472Z,95701.09
2023-04-02T17:53:08.801Z,95691.09
2023-04-02T17:55:40.307Z,95696.44
2023-04-02T17:58:26.645Z,95704.63
2023-04-02T18:01:24.619Z,95697.13
2023-04-02T18:03:58.354Z,95691.13
2023-04-02T18:06:43.762Z,95696.31
2023-04-02T18:09:29.841Z,95706.31
2023-04-02T18:11:56.108Z,95689.00
2023-04-02T18:14:53.070Z,95685.44
2023-04-02T18:17:27.297Z,95696.13
2023-04-02T18:20:03.440Z,95699.13
2023-04-02T18:22:43.841Z,95701.38
2023-04-02T18:25:42.731Z,95690.66
2023-04-02T18:28:23.935Z,95696.06
2023-04-02T18:31:01.725Z,95705.94
2023-04-02T18:34:11.212Z,95700.19
2023-04-02T18:37:04.926Z,95716.38
2023-04-02T18:40:05.414Z,95707.59
2023-04-02T18:42:31.685Z,95718.50
2023-04-02T18:45:10.210Z,95720.34
2023-04-02T18:48:01.460Z,95727.94
2023-04-02T18:50:32.738Z,95737.59
2023-04-02T18:53:08.458Z,95738.84
2023-04-02T18:55:35.189Z,95743.75
2023-04-02T18:58:09.289Z,95748.66
2023-04-02T19:00:45.398Z,95748.44
2023-04-02T19:03:27.417Z,95756.41
2023-04-02T19:06:05.899Z,95757.06
2023-04-02T19:08:47.195Z,95754.25
2023-04-02T19:11:18.670Z,95776.16
2023-04-02T19:13:45.111Z,95772.25
2023-04-02T19:16:17.488Z,95782.03
2023-04-02T19:19:04.078Z,95783.50
2023-04-02T19:21:52.949Z,95780.88
2023-04-02T19:24:28.537Z,95791.19
2023-04-02T19:27:03.226Z,95791.66
2023-04-02T19:30:27.036Z,95799.06
2023-04-02T19:33:12.003Z,95808.09
2023-04-02T19:35:48.081Z,95804.59
2023-04-02T19:38:33.370Z,95806.72
2023-04-02T19:41:18.818Z,95824.38
2023-04-02T19:43:45.379Z,95824.13
2023-04-02T19:46:11.797Z,95829.25
2023-04-02T19:48:47.348Z,95830.44
2023-04-02T19:51:13.712Z,95846.78
2023-04-02T19:53:40.175Z,95848.66
2023-04-02T19:56:06.881Z,95859.16
2023-04-02T19:58:35.341Z,95850.75
2023-04-02T20:01:02.885Z,95856.56
2023-04-02T20:03:30.597Z,95869.31
2023-04-02T20:05:59.340Z,95886.09
2023-04-02T20:08:28.692Z,95882.13
2023-04-02T20:10:56.043Z,95903.03
2023-04-02T20:13:22.394Z,95912.97
2023-04-02T20:15:49.636Z,95917.69
2023-04-02T20:18:16.728Z,95924.78
2023-04-02T20:20:46.625Z,95926.88
2023-04-02T20:23:13.022Z,95937.25
2023-04-02T20:25:56.519Z,95945.31
2023-04-02T20:28:24.737Z,95950.03
2023-04-02T20:30:51.872Z,95970.13
2023-04-02T20:33:24.312Z,95974.69
2023-04-02T20:35:52.212Z,95991.84
2023-04-02T20:38:18.918Z,95990.88
2023-04-02T20:40:52.027Z,96004.38
2023-04-02T20:43:18.719Z,96009.09
2023-04-02T20:45:55.205Z,96018.97
2023-04-02T20:48:23.355Z,96024.84
2023-04-02T20:50:49.841Z,96033.72
2023-04-02T20:53:17.519Z,96032.72
2023-04-02T20:55:45.709Z,96042.44
2023-04-02T20:58:13.937Z,96051.78
2023-04-02T21:00:40.854Z,96059.97
2023-04-02T21:03:10.102Z,96070.44
2023-04-02T21:05:47.289Z,96063.22
2023-04-02T21:08:14.605Z,96082.63
2023-04-02T21:10:41.091Z,96081.63
2023-04-02T21:13:07.811Z,96082.28
2023-04-02T21:15:34.476Z,96076.69
2023-04-02T21:18:01.786Z,96092.13
2023-04-02T21:20:28.341Z,96089.16
2023-04-02T21:22:54.652Z,96093.41
2023-04-02T21:25:21.503Z,96092.25
2023-04-02T21:27:47.841Z,96098.97
2023-04-02T21:30:14.234Z,96104.25
2023-04-02T21:32:40.958Z,96108.53
2023-04-02T21:35:08.774Z,96114.41
2023-04-02T21:37:35.191Z,96113.13
2023-04-02T21:40:01.799Z,96126.06
2023-04-02T21:42:28.786Z,96114.44
2023-04-02T21:44:55.875Z,96116.06
2023-04-02T21:47:23.927Z,96130.00
2023-04-02T21:49:50.284Z,96122.31
2023-04-02T21:52:16.609Z,96133.78
2023-04-02T21:54:43.147Z,96119.03
2023-04-02T21:57:09.557Z,96124.94
2023-04-02T21:59:35.960Z,96132.31
2023-04-02T22:02:02.645Z,96131.16
2023-04-02T22:04:30.484Z,96138.69
2023-04-02T22:06:57.116Z,96141.66
2023-04-02T22:09:25.537Z,96136.75
2023-04-02T22:11:55.158Z,96138.69
2023-04-02T22:14:21.672Z,96139.19
2023-04-02T22:16:48.669Z,96138.69
2023-04-02T22:19:16.512Z,96140.31
2023-04-02T22:21:43.318Z,96129.50
2023-04-02T22:24:13.349Z,96148.38
2023-04-02T22:26:40.818Z,96154.09
2023-04-02T22:29:07.862Z,96161.28
2023-04-02T22:31:35.146Z,96172.78
2023-04-02T22:34:03.582Z,96162.28
2023-04-02T22:36:31.054Z,96167.50
2023-04-02T22:38:58.952Z,96170.13
2023-04-02T22:41:27.984Z,96176.22
2023-04-02T22:43:58.957Z,96175.22
2023-04-02T22:46:26.796Z,96181.28
2023-04-02T22:48:53.674Z,96179.97
2023-04-02T22:51:22.082Z,96177.34
2023-04-02T22:53:49.388Z,96179.00
2023-04-02T22:56:22.671Z,96195.38
2023-04-02T22:58:49.738Z,96201.75
2023-04-02T23:01:23.120Z,96191.94
2023-04-02T23:03:49.821Z,96200.78
2023-04-02T23:06:18.154Z,96197.50
2023-04-02T23:08:45.840Z,96201.94
2023-04-02T23:11:15.883Z,96198.16
2023-04-02T23:13:43.068Z,96204.22
2023-04-02T23:16:13.001Z,96207.00
2023-04-02T23:18:41.223Z,96208.31
2023-04-02T23:21:08.007Z,96212.75
2023-04-02T23:23:35.800Z,96209.47
2023-04-02T23:26:15.624Z,96213.41
2023-04-02T23:28:43.040Z,96221.22
2023-04-02T23:31:13.435Z,96228.47
2023-04-02T23:33:40.098Z,96220.59
2023-04-02T23:36:31.028Z,96233.38
2023-04-02T23:39:01.176Z,96228.94
2023-04-02T23:41:29.002Z,96238.31
2023-04-02T23:43:57.416Z,96221.28
2023-04-02T23:46:24.785Z,96237.50
2023-04-02T23:48:52.314Z,96238.47
2023-04-02T23:51:19.947Z,96230.44
2023-04-02T23:53:46.472Z,96236.16
2023-04-02T23:56:12.789Z,96244.81
2023-04-02T23:58:39.716Z,96244.47
